Terminal Aerodrome Forecast
Issued by NWS

Home | Current Version | Previous Version | Text Only | Print | Product List | Glossary On
Versions: 1 2 3 4 5 6 7 8 9 10 11 12 13
343
FTUS42 KMLB 111124
TAFSFB
TAF
KSFB 111124Z 1112/1212 31006KT P6SM SKC
     FM112000 24004KT P6SM SKC=

USA.gov is the U.S. government's official web portal to all federal, state and local government web resources and services.